createdAt,value
2019-02-11T00:00:57.713Z,98935.06
2019-02-11T00:01:59.128Z,98940.95
2019-02-11T00:03:00.242Z,98945.45
2019-02-11T00:04:01.472Z,98946.48
2019-02-11T00:05:03.385Z,98941.34
2019-02-11T00:06:04.503Z,98948.84
2019-02-11T00:07:05.621Z,98945.84
2019-02-11T00:08:06.730Z,98948.52
2019-02-11T00:09:08.257Z,98953.25
2019-02-11T00:10:09.471Z,98946.55
2019-02-11T00:11:10.589Z,98949.23
2019-02-11T00:12:11.808Z,98948.91
2019-02-11T00:13:12.927Z,98954.59
2019-02-11T00:14:14.066Z,98952.61
2019-02-11T00:15:15.236Z,98949.94
2019-02-11T00:16:16.403Z,98959.63
2019-02-11T00:17:17.625Z,98955.29
2019-02-11T00:18:18.737Z,98959.63
2019-02-11T00:19:19.864Z,98962.30
2019-02-11T00:20:20.980Z,98960.64
2019-02-11T00:21:22.123Z,98964.66
2019-02-11T00:22:23.248Z,98962.52
2019-02-11T00:23:24.379Z,98969.52
2019-02-11T00:24:25.537Z,98967.34
2019-02-11T00:25:26.652Z,98972.20
2019-02-11T00:26:27.769Z,98970.33
2019-02-11T00:27:28.887Z,98971.67
2019-02-11T00:28:30.004Z,98975.37
2019-02-11T00:29:31.169Z,98973.22
2019-02-11T00:30:32.291Z,98975.05
2019-02-11T00:31:33.401Z,98967.02
2019-02-11T00:32:34.521Z,98978.25
2019-02-11T00:33:35.637Z,98966.70
2019-02-11T00:34:36.771Z,98977.23
2019-02-11T00:35:37.882Z,98976.91
2019-02-11T00:36:39.002Z,98978.57
2019-02-11T00:37:40.122Z,98979.59
2019-02-11T00:38:41.255Z,98974.23
2019-02-11T00:39:42.588Z,98979.06
2019-02-11T00:40:43.701Z,98976.28
2019-02-11T00:41:44.812Z,98978.44
2019-02-11T00:42:45.934Z,98985.13
2019-02-11T00:43:47.052Z,98984.63
2019-02-11T00:44:48.277Z,98983.47
2019-02-11T00:45:49.396Z,98983.47
2019-02-11T00:46:50.518Z,98983.68
2019-02-11T00:47:51.634Z,98980.16
2019-02-11T00:48:52.750Z,98987.87
2019-02-11T00:49:53.911Z,98991.89
2019-02-11T00:50:55.024Z,98990.23
2019-02-11T00:51:56.139Z,98989.60
2019-02-11T00:52:57.252Z,98985.59
2019-02-11T00:53:58.368Z,98990.94
2019-02-11T00:54:59.524Z,98998.65
2019-02-11T00:56:00.655Z,98995.34
2019-02-11T00:57:01.774Z,99000.69
2019-02-11T00:58:02.893Z,98999.03
2019-02-11T00:59:04.010Z,98999.03
2019-02-11T01:00:08.262Z,99004.07
2019-02-11T01:01:09.379Z,99004.25
2019-02-11T01:02:10.596Z,99007.45
2019-02-11T01:03:11.754Z,99010.13
2019-02-11T01:04:12.867Z,99010.83
2019-02-11T01:05:20.740Z,99011.85
2019-02-11T01:06:21.848Z,99019.56
2019-02-11T01:07:22.970Z,99018.23
2019-02-11T01:08:24.084Z,99024.39
2019-02-11T01:09:25.313Z,99021.92
2019-02-11T01:10:26.430Z,99021.92
2019-02-11T01:11:27.558Z,99030.44
2019-02-11T01:12:28.772Z,99028.79
2019-02-11T01:13:29.887Z,99033.33
2019-02-11T01:14:31.004Z,99040.02
2019-02-11T01:15:32.119Z,99034.84
2019-02-11T01:16:33.439Z,99033.33
2019-02-11T01:17:34.548Z,99034.66
2019-02-11T01:18:35.670Z,99040.51
2019-02-11T01:19:36.783Z,99042.38
2019-02-11T01:20:37.900Z,99044.03
2019-02-11T01:21:39.204Z,99045.05
2019-02-11T01:22:40.339Z,99051.21
2019-02-11T01:23:41.456Z,99049.38
2019-02-11T01:24:42.573Z,99052.06
2019-02-11T01:25:43.683Z,99048.05
2019-02-11T01:26:44.807Z,99048.05
2019-02-11T01:27:45.935Z,99053.39
2019-02-11T01:28:47.048Z,99050.41
2019-02-11T01:29:48.163Z,99054.73
2019-02-11T01:30:49.533Z,99060.09
2019-02-11T01:31:50.659Z,99055.23
2019-02-11T01:32:51.779Z,99066.25
2019-02-11T01:33:52.892Z,99061.42
2019-02-11T01:34:54.006Z,99058.75
2019-02-11T01:35:55.124Z,99064.09
2019-02-11T01:36:56.251Z,99061.91
2019-02-11T01:37:57.373Z,99058.42
2019-02-11T01:38:58.475Z,99065.44
2019-02-11T01:39:59.591Z,99067.27
2019-02-11T01:41:00.704Z,99070.47
2019-02-11T01:42:01.943Z,99070.96
2019-02-11T01:43:03.057Z,99069.94
2019-02-11T01:44:04.277Z,99068.60
2019-02-11T01:45:08.692Z,99076.14
2019-02-11T01:46:09.916Z,99070.47
2019-02-11T01:47:11.044Z,99067.80
2019-02-11T01:48:12.155Z,99075.82
2019-02-11T01:49:13.372Z,99080.33
2019-02-11T01:50:14.484Z,99080.85
2019-02-11T01:51:15.596Z,99082.19
2019-02-11T01:52:16.719Z,99080.85
2019-02-11T01:53:17.832Z,99085.36
2019-02-11T01:54:18.948Z,99083.38
2019-02-11T01:55:20.080Z,99085.56
2019-02-11T01:56:21.316Z,99085.25
2019-02-11T01:57:22.441Z,99099.64
2019-02-11T01:58:23.552Z,99100.98
2019-02-11T01:59:24.674Z,99103.66
2019-02-11T02:00:25.884Z,99106.83
2019-02-11T02:01:27.000Z,99110.52
2019-02-11T02:02:28.156Z,99112.70
2019-02-11T02:03:29.274Z,99109.18
2019-02-11T02:04:30.384Z,99112.06
2019-02-11T02:05:32.504Z,99112.70
2019-02-11T02:06:33.622Z,99113.72
2019-02-11T02:07:34.786Z,99120.91
2019-02-11T02:08:35.896Z,99116.89
2019-02-11T02:09:37.037Z,99119.07
2019-02-11T02:10:38.134Z,99125.23
2019-02-11T02:11:39.356Z,99115.55
2019-02-11T02:12:40.513Z,99121.75
2019-02-11T02:13:44.887Z,99127.09
2019-02-11T02:14:44.649Z,99126.78
2019-02-11T02:15:45.770Z,99124.91
2019-02-11T02:16:46.884Z,99120.09
2019-02-11T02:17:48.124Z,99128.12
2019-02-11T02:18:49.239Z,99122.09
2019-02-11T02:19:50.454Z,99124.77
2019-02-11T02:20:51.568Z,99124.77
2019-02-11T02:21:52.684Z,99126.95
2019-02-11T02:22:53.827Z,99129.95
2019-02-11T02:23:54.939Z,99127.44
2019-02-11T02:24:56.158Z,99123.43
2019-02-11T02:25:57.273Z,99127.80
2019-02-11T02:26:58.390Z,99130.96
2019-02-11T02:27:59.512Z,99129.30
2019-02-11T02:29:00.733Z,99130.96
2019-02-11T02:30:02.265Z,99126.45
2019-02-11T02:31:03.366Z,99133.64
2019-02-11T02:32:04.584Z,99124.27
2019-02-11T02:33:06.324Z,99122.94
2019-02-11T02:34:07.442Z,99131.81
2019-02-11T02:35:08.540Z,99122.45
2019-02-11T02:36:09.658Z,99127.80
2019-02-11T02:37:10.772Z,99127.80
2019-02-11T02:38:11.904Z,99127.80
2019-02-11T02:39:13.016Z,99126.45
2019-02-11T02:40:14.160Z,99124.77
2019-02-11T02:41:15.278Z,99128.78
2019-02-11T02:42:16.397Z,99133.64
2019-02-11T02:43:17.600Z,99130.13
2019-02-11T02:44:18.716Z,99130.64
2019-02-11T02:45:19.834Z,99130.96
2019-02-11T02:46:21.022Z,99130.13
2019-02-11T02:47:22.278Z,99132.80
2019-02-11T02:48:23.410Z,99140.82
2019-02-11T02:49:24.527Z,99137.33
2019-02-11T02:50:25.640Z,99135.47
2019-02-11T02:51:26.752Z,99143.84
2019-02-11T02:52:27.869Z,99144.34
2019-02-11T02:53:28.999Z,99147.86
2019-02-11T02:54:30.213Z,99153.21
2019-02-11T02:55:31.334Z,99150.02
2019-02-11T02:56:32.466Z,99157.22
2019-02-11T02:57:33.608Z,99155.89
2019-02-11T02:58:34.736Z,99159.05
2019-02-11T02:59:35.859Z,99160.88
2019-02-11T03:00:37.074Z,99163.07
2019-02-11T03:01:38.188Z,99166.23
2019-02-11T03:02:39.307Z,99167.57
2019-02-11T03:03:40.467Z,99163.56
2019-02-11T03:04:41.689Z,99166.23
2019-02-11T03:05:42.821Z,99166.77
2019-02-11T03:06:43.915Z,99171.59
2019-02-11T03:07:45.148Z,99175.28
2019-02-11T03:08:46.276Z,99176.30
2019-02-11T03:09:47.393Z,99174.47
2019-02-11T03:10:48.508Z,99176.30
2019-02-11T03:11:49.615Z,99191.02
2019-02-11T03:12:50.730Z,99183.97
2019-02-11T03:13:51.989Z,99183.97
2019-02-11T03:14:53.098Z,99195.69
2019-02-11T03:15:54.321Z,99194.03
2019-02-11T03:16:55.551Z,99195.05
2019-02-11T03:17:56.666Z,99192.05
2019-02-11T03:18:57.796Z,99193.91
2019-02-11T03:19:58.918Z,99200.59
2019-02-11T03:21:00.131Z,99195.73
2019-02-11T03:22:01.244Z,99197.60
2019-02-11T03:23:02.368Z,99196.75
2019-02-11T03:24:03.599Z,99202.63
2019-02-11T03:25:06.204Z,99195.94
2019-02-11T03:26:07.316Z,99198.30
2019-02-11T03:27:08.432Z,99198.30
2019-02-11T03:28:09.568Z,99200.97
2019-02-11T03:29:10.848Z,99202.80
2019-02-11T03:30:12.132Z,99198.30
2019-02-11T03:31:13.242Z,99204.14
2019-02-11T03:32:14.354Z,99209.00
2019-02-11T03:33:15.470Z,99210.83
2019-02-11T03:34:16.597Z,99209.16
2019-02-11T03:35:17.988Z,99211.84
2019-02-11T03:36:19.095Z,99208.84
2019-02-11T03:37:20.212Z,99212.37
2019-02-11T03:38:21.427Z,99204.83
2019-02-11T03:39:22.552Z,99213.70
2019-02-11T03:40:23.669Z,99212.53
2019-02-11T03:41:24.884Z,99211.52
2019-02-11T03:42:25.997Z,99218.73
2019-02-11T03:43:27.116Z,99214.72
2019-02-11T03:44:28.268Z,99215.21
2019-02-11T03:45:29.381Z,99217.39
2019-02-11T03:46:30.596Z,99213.88
2019-02-11T03:47:31.712Z,99219.22
2019-02-11T03:48:32.824Z,99218.20
2019-02-11T03:49:33.952Z,99222.22
2019-02-11T03:50:35.061Z,99221.41
2019-02-11T03:51:36.173Z,99227.25
2019-02-11T03:52:37.384Z,99228.91
2019-02-11T03:53:38.496Z,99184.92
2019-02-11T03:54:39.620Z,99223.56
2019-02-11T03:55:40.729Z,99227.56
2019-02-11T03:56:42.252Z,99224.89
2019-02-11T03:57:43.362Z,99230.77
2019-02-11T03:58:44.477Z,99227.56
2019-02-11T03:59:45.712Z,99235.59
2019-02-11T04:00:46.831Z,99237.78
2019-02-11T04:01:47.945Z,99234.78
2019-02-11T04:02:49.059Z,99234.26
2019-02-11T04:03:50.189Z,99236.93
2019-02-11T04:04:51.345Z,99237.25
2019-02-11T04:05:52.970Z,99238.80
2019-02-11T04:06:54.086Z,99247.63
2019-02-11T04:07:55.510Z,99240.13
2019-02-11T04:08:56.621Z,99244.14
2019-02-11T04:09:57.853Z,99253.50
2019-02-11T04:10:58.967Z,99256.50
2019-02-11T04:12:00.078Z,99256.99
2019-02-11T04:13:01.208Z,99254.31
2019-02-11T04:14:02.305Z,99258.66
2019-02-11T04:15:05.586Z,99257.52
2019-02-11T04:16:06.832Z,99263.19
2019-02-11T04:17:08.036Z,99267.00
2019-02-11T04:18:09.156Z,99265.86
2019-02-11T04:19:10.272Z,99267.69
2019-02-11T04:20:11.592Z,99268.22
2019-02-11T04:21:12.711Z,99270.37
2019-02-11T04:22:13.820Z,99274.91
2019-02-11T04:23:14.947Z,99273.56
2019-02-11T04:24:16.058Z,99274.05
2019-02-11T04:25:17.361Z,99278.06
2019-02-11T04:26:18.476Z,99278.06
2019-02-11T04:27:19.591Z,99278.06
2019-02-11T04:28:20.813Z,99277.75
2019-02-11T04:29:21.935Z,99273.24
2019-02-11T04:30:23.065Z,99279.93
2019-02-11T04:31:24.178Z,99279.93
2019-02-11T04:32:25.294Z,99278.06
2019-02-11T04:33:26.424Z,99287.44
2019-02-11T04:34:27.530Z,99284.75
2019-02-11T04:35:28.940Z,99284.27
2019-02-11T04:36:30.048Z,99283.42
2019-02-11T04:37:31.164Z,99289.61
2019-02-11T04:38:32.282Z,99289.09
2019-02-11T04:39:33.402Z,99289.61
2019-02-11T04:40:34.528Z,99284.27
2019-02-11T04:41:35.646Z,99286.09
2019-02-11T04:42:36.761Z,99285.60
2019-02-11T04:43:37.873Z,99284.44
2019-02-11T04:44:38.989Z,99283.42
2019-02-11T04:45:40.223Z,99288.77
2019-02-11T04:46:41.330Z,99285.77
2019-02-11T04:47:42.444Z,99291.97
2019-02-11T04:48:43.560Z,99287.80
2019-02-11T04:49:44.676Z,99297.00
2019-02-11T04:50:45.919Z,99294.48
2019-02-11T04:51:47.033Z,99299.02
2019-02-11T04:52:48.142Z,99297.85
2019-02-11T04:53:49.253Z,99296.52
2019-02-11T04:54:50.368Z,99304.22
2019-02-11T04:55:51.522Z,99301.55
2019-02-11T04:56:52.650Z,99301.70
2019-02-11T04:57:53.762Z,99302.88
2019-02-11T04:58:54.893Z,99309.56
2019-02-11T04:59:56.006Z,99303.05
2019-02-11T05:00:57.159Z,99307.41
2019-02-11T05:01:58.273Z,99310.25
2019-02-11T05:02:59.495Z,99309.93
2019-02-11T05:04:00.619Z,99316.94
2019-02-11T05:05:01.873Z,99315.77
2019-02-11T05:06:03.151Z,99317.11
2019-02-11T05:07:04.269Z,99321.64
2019-02-11T05:08:05.490Z,99320.63
2019-02-11T05:09:06.600Z,99322.13
2019-02-11T05:10:15.071Z,99327.81
2019-02-11T05:11:16.230Z,99326.99
2019-02-11T05:12:17.360Z,99329.66
2019-02-11T05:13:18.457Z,99328.00
2019-02-11T05:14:19.577Z,99329.34
2019-02-11T05:15:20.710Z,99329.02
2019-02-11T05:16:21.852Z,99324.69
2019-02-11T05:17:22.973Z,99329.51
2019-02-11T05:18:24.080Z,99333.84
2019-02-11T05:19:25.200Z,99330.36
2019-02-11T05:20:26.318Z,99333.52
2019-02-11T05:21:27.476Z,99334.86
2019-02-11T05:22:28.584Z,99337.04
2019-02-11T05:23:29.717Z,99328.70
2019-02-11T05:24:30.822Z,99337.04
2019-02-11T05:25:31.937Z,99334.37
2019-02-11T05:26:33.071Z,99335.70
2019-02-11T05:27:34.182Z,99338.37
2019-02-11T05:28:35.300Z,99342.06
2019-02-11T05:29:36.418Z,99342.88
2019-02-11T05:30:37.635Z,99338.05
2019-02-11T05:31:38.788Z,99341.86
2019-02-11T05:32:40.230Z,99332.75
2019-02-11T05:33:41.312Z,99344.73
2019-02-11T05:34:42.429Z,99345.87
2019-02-11T05:35:43.545Z,99346.40
2019-02-11T05:36:44.702Z,99351.75
2019-02-11T05:37:45.821Z,99350.91
2019-02-11T05:38:46.932Z,99351.75
2019-02-11T05:39:48.158Z,99353.09
2019-02-11T05:40:49.507Z,99350.41
2019-02-11T05:41:50.635Z,99357.75
2019-02-11T05:42:51.749Z,99356.09
2019-02-11T05:43:52.961Z,99356.91
2019-02-11T05:44:54.426Z,99357.42
2019-02-11T05:45:55.687Z,99362.77
2019-02-11T05:46:56.819Z,99364.44
2019-02-11T05:47:57.937Z,99368.45
2019-02-11T05:48:59.148Z,99372.13
2019-02-11T05:50:00.337Z,99371.13
2019-02-11T05:51:01.480Z,99367.11
2019-02-11T05:52:02.608Z,99369.78
2019-02-11T05:53:03.721Z,99370.27
2019-02-11T05:54:04.945Z,99371.61
2019-02-11T05:55:06.848Z,99369.78
2019-02-11T05:56:07.960Z,99373.80
2019-02-11T05:57:09.110Z,99373.47
2019-02-11T05:58:10.232Z,99375.95
2019-02-11T05:59:11.352Z,99373.80
2019-02-11T06:00:14.569Z,99377.48
2019-02-11T06:01:16.683Z,99377.48
2019-02-11T06:02:19.714Z,99381.81
2019-02-11T06:03:20.928Z,99390.33
2019-02-11T06:04:22.150Z,99389.84
2019-02-11T06:05:23.267Z,99392.52
2019-02-11T06:06:24.384Z,99393.86
2019-02-11T06:07:25.613Z,99396.86
2019-02-11T06:08:26.836Z,99390.49
2019-02-11T06:09:27.949Z,99398.84
2019-02-11T06:10:29.126Z,99394.66
2019-02-11T06:11:30.584Z,99394.79
2019-02-11T06:12:31.708Z,99406.79
2019-02-11T06:13:32.818Z,99400.75
2019-02-11T06:14:33.928Z,99403.71
2019-02-11T06:15:35.040Z,99407.72
2019-02-11T06:16:36.167Z,99408.72
2019-02-11T06:17:37.286Z,99411.69
2019-02-11T06:18:38.402Z,99415.13
2019-02-11T06:19:39.519Z,99410.58
2019-02-11T06:20:40.631Z,99413.86
2019-02-11T06:21:41.744Z,99412.48
2019-02-11T06:22:43.016Z,99415.44
2019-02-11T06:23:44.144Z,99413.03
2019-02-11T06:24:45.258Z,99418.67
2019-02-11T06:25:46.373Z,99420.31
2019-02-11T06:26:47.488Z,99421.41
2019-02-11T06:27:48.644Z,99420.17
2019-02-11T06:28:49.762Z,99419.11
2019-02-11T06:29:50.876Z,99422.37
2019-02-11T06:30:52.003Z,99421.31
2019-02-11T06:31:53.121Z,99426.45
2019-02-11T06:32:54.248Z,99429.39
2019-02-11T06:33:55.364Z,99428.03
2019-02-11T06:34:56.481Z,99429.64
2019-02-11T06:35:57.603Z,99426.09
2019-02-11T06:36:58.716Z,99422.83
2019-02-11T06:37:59.850Z,99425.14
2019-02-11T06:39:00.961Z,99428.11
2019-02-11T06:40:02.290Z,99427.20
2019-02-11T06:41:03.402Z,99430.36
2019-02-11T06:42:04.516Z,99433.80
2019-02-11T06:43:05.788Z,99433.73
2019-02-11T06:44:06.906Z,99436.03
2019-02-11T06:45:13.209Z,99442.39
2019-02-11T06:46:12.336Z,99438.48
2019-02-11T06:47:13.552Z,99437.93
2019-02-11T06:48:14.681Z,99435.89
2019-02-11T06:49:15.901Z,99440.55
2019-02-11T06:50:17.012Z,99437.98
2019-02-11T06:51:18.128Z,99434.11
2019-02-11T06:52:19.245Z,99436.09
2019-02-11T06:53:20.377Z,99434.36
2019-02-11T06:54:21.493Z,99433.66
2019-02-11T06:55:22.609Z,99433.27
2019-02-11T06:56:23.720Z,99436.59
2019-02-11T06:57:24.845Z,99444.47
2019-02-11T06:58:26.001Z,99442.42
2019-02-11T06:59:27.112Z,99447.91
2019-02-11T07:00:28.231Z,99449.06
2019-02-11T07:01:29.344Z,99448.86
2019-02-11T07:02:30.456Z,99453.84
2019-02-11T07:03:31.606Z,99450.66
2019-02-11T07:04:32.721Z,99456.20
2019-02-11T07:05:33.836Z,99454.66
2019-02-11T07:06:34.948Z,99457.16
2019-02-11T07:07:36.766Z,99461.82
2019-02-11T07:08:38.005Z,99460.80
2019-02-11T07:09:39.125Z,99462.45
2019-02-11T07:10:40.348Z,99461.44
2019-02-11T07:11:41.466Z,99463.59
2019-02-11T07:12:42.581Z,99468.78
2019-02-11T07:13:43.710Z,99460.73
2019-02-11T07:14:44.823Z,99470.45
2019-02-11T07:15:46.454Z,99469.59
2019-02-11T07:16:47.560Z,99477.16
2019-02-11T07:17:48.772Z,99474.47
2019-02-11T07:18:49.901Z,99481.17
2019-02-11T07:19:51.017Z,99479.83
2019-02-11T07:20:52.132Z,99488.38
2019-02-11T07:21:53.245Z,99487.04
2019-02-11T07:22:54.373Z,99494.59
2019-02-11T07:23:55.618Z,99487.56
2019-02-11T07:24:56.731Z,99489.72
2019-02-11T07:25:57.844Z,99499.12
2019-02-11T07:26:58.957Z,99494.59
2019-02-11T07:28:00.068Z,99499.12
2019-02-11T07:29:01.413Z,99496.25
2019-02-11T07:30:04.129Z,99498.94
2019-02-11T07:31:05.345Z,99497.07
2019-02-11T07:32:06.470Z,99489.86
2019-02-11T07:33:07.584Z,99497.39
2019-02-11T07:34:08.709Z,99500.39
2019-02-11T07:35:09.924Z,99496.37
2019-02-11T07:36:11.140Z,99486.97
2019-02-11T07:37:12.360Z,99491.84
2019-02-11T07:38:13.469Z,99496.19
2019-02-11T07:39:14.627Z,99505.58
2019-02-11T07:40:15.741Z,99497.71
2019-02-11T07:41:18.353Z,99501.56
2019-02-11T07:42:33.380Z,99499.38
2019-02-11T07:43:36.412Z,99495.88
2019-02-11T07:44:39.682Z,99494.00
2019-02-11T07:45:48.520Z,99496.37
2019-02-11T07:46:49.644Z,99495.23
2019-02-11T07:47:50.755Z,99500.60
2019-02-11T07:48:51.864Z,99503.45
2019-02-11T07:49:53.084Z,99499.64
2019-02-11T07:50:54.299Z,99502.33
2019-02-11T07:51:55.417Z,99499.64
2019-02-11T07:52:56.531Z,99497.98
2019-02-11T07:53:57.751Z,99499.32
2019-02-11T07:54:58.880Z,99500.98
2019-02-11T07:56:00.102Z,99505.02
2019-02-11T07:57:01.212Z,99499.32
2019-02-11T07:58:02.335Z,99497.98
2019-02-11T07:59:03.452Z,99501.48
2019-02-11T08:00:07.276Z,99503.03
2019-02-11T08:01:08.500Z,99501.69
2019-02-11T08:02:09.712Z,99501.69
2019-02-11T08:03:10.830Z,99501.37
2019-02-11T08:04:12.040Z,99503.20
2019-02-11T08:05:13.161Z,99504.75
2019-02-11T08:06:14.276Z,99506.59
2019-02-11T08:07:15.387Z,99498.54
2019-02-11T08:08:16.504Z,99503.09
2019-02-11T08:09:17.620Z,99505.78
2019-02-11T08:10:18.744Z,99505.95
2019-02-11T08:11:19.860Z,99501.43
2019-02-11T08:12:20.979Z,99512.66
2019-02-11T08:13:22.097Z,99502.45
2019-02-11T08:14:23.317Z,99506.48
2019-02-11T08:15:24.541Z,99513.19
2019-02-11T08:16:25.658Z,99512.66
2019-02-11T08:17:26.872Z,99512.16
2019-02-11T08:18:28.127Z,99517.00
2019-02-11T08:19:29.336Z,99517.33
2019-02-11T08:20:30.634Z,99521.87
2019-02-11T08:21:31.840Z,99522.20
2019-02-11T08:22:32.956Z,99522.20
2019-02-11T08:23:34.068Z,99519.30
2019-02-11T08:24:35.197Z,99518.60
2019-02-11T08:25:36.344Z,99523.47
2019-02-11T08:26:37.461Z,99528.84
2019-02-11T08:27:38.581Z,99525.95
2019-02-11T08:28:39.802Z,99527.11
2019-02-11T08:29:41.016Z,99527.93
2019-02-11T08:30:42.269Z,99530.44
2019-02-11T08:31:43.379Z,99536.83
2019-02-11T08:32:44.493Z,99531.78
2019-02-11T08:33:45.605Z,99529.42
2019-02-11T08:34:46.818Z,99531.08
2019-02-11T08:35:47.951Z,99534.08
2019-02-11T08:36:49.069Z,99533.55
2019-02-11T08:37:50.248Z,99533.88
2019-02-11T08:38:51.308Z,99532.53
2019-02-11T08:39:52.532Z,99539.06
2019-02-11T08:40:53.668Z,99540.41
2019-02-11T08:41:54.782Z,99537.73
2019-02-11T08:42:55.894Z,99531.51
2019-02-11T08:43:58.290Z,99536.06
2019-02-11T08:44:59.638Z,99536.38
2019-02-11T08:46:00.765Z,99531.02
2019-02-11T08:47:01.881Z,99529.67
2019-02-11T08:48:02.993Z,99535.36
2019-02-11T08:49:04.111Z,99535.04
2019-02-11T08:50:07.031Z,99529.67
2019-02-11T08:51:08.599Z,99532.19
2019-02-11T08:52:09.814Z,99537.55
2019-02-11T08:53:10.929Z,99534.34
2019-02-11T08:54:12.045Z,99535.19
2019-02-11T08:55:13.156Z,99535.50
2019-02-11T08:56:14.320Z,99537.66
2019-02-11T08:57:15.407Z,99547.38
2019-02-11T08:58:16.566Z,99539.33
2019-02-11T08:59:17.689Z,99546.56
2019-02-11T09:00:18.805Z,99547.38
2019-02-11T09:01:19.961Z,99551.23
2019-02-11T09:02:21.069Z,99549.04
2019-02-11T09:03:22.182Z,99549.04
2019-02-11T09:04:23.296Z,99549.04
2019-02-11T09:05:24.607Z,99554.23
2019-02-11T09:06:25.870Z,99551.72
2019-02-11T09:07:26.986Z,99553.06
2019-02-11T09:08:28.101Z,99552.57
2019-02-11T09:09:29.214Z,99548.22
2019-02-11T09:10:30.435Z,99562.14
2019-02-11T09:11:31.603Z,99556.27
2019-02-11T09:12:32.796Z,99550.38
2019-02-11T09:13:33.909Z,99551.72
2019-02-11T09:14:35.025Z,99557.94
2019-02-11T09:15:36.255Z,99557.41
2019-02-11T09:16:37.780Z,99556.91
2019-02-11T09:17:38.899Z,99560.94
2019-02-11T09:18:40.616Z,99558.75
2019-02-11T09:19:41.724Z,99557.73
2019-02-11T09:20:42.841Z,99560.41
2019-02-11T09:21:43.973Z,99563.09
2019-02-11T09:22:45.092Z,99569.48
2019-02-11T09:23:46.334Z,99568.99
2019-02-11T09:24:47.452Z,99574.86
2019-02-11T09:25:48.572Z,99570.02
2019-02-11T09:26:49.720Z,99568.15
2019-02-11T09:27:50.841Z,99569.17
2019-02-11T09:28:52.062Z,99575.06
2019-02-11T09:29:53.173Z,99571.85
2019-02-11T09:30:54.573Z,99577.22
2019-02-11T09:31:57.516Z,99570.19
2019-02-11T09:32:58.632Z,99580.92
2019-02-11T09:33:59.763Z,99576.90
2019-02-11T09:35:00.864Z,99576.09
2019-02-11T09:36:03.345Z,99583.61
2019-02-11T09:37:04.815Z,99578.24
2019-02-11T09:38:05.936Z,99585.97
2019-02-11T09:39:07.853Z,99581.45
2019-02-11T09:40:14.431Z,99587.31
2019-02-11T09:41:15.640Z,99592.69
2019-02-11T09:42:16.872Z,99589.69
2019-02-11T09:43:17.996Z,99596.39
2019-02-11T09:44:19.105Z,99591.55
2019-02-11T09:45:22.821Z,99587.20
2019-02-11T09:46:24.041Z,99588.72
2019-02-11T09:47:25.440Z,99595.11
2019-02-11T09:48:26.556Z,99587.23
2019-02-11T09:49:27.664Z,99594.47
2019-02-11T09:50:35.036Z,99596.30
2019-02-11T09:51:39.748Z,99600.01
2019-02-11T09:52:40.972Z,99598.88
2019-02-11T09:53:42.189Z,99607.42
2019-02-11T09:54:43.305Z,99603.92
2019-02-11T09:55:44.421Z,99604.41
2019-02-11T09:56:46.136Z,99605.96
2019-02-11T09:57:47.288Z,99610.16
2019-02-11T09:58:48.516Z,99611.02
2019-02-11T09:59:49.631Z,99613.05
2019-02-11T10:00:50.747Z,99615.73
2019-02-11T10:01:51.860Z,99611.39
2019-02-11T10:02:53.092Z,99617.25
2019-02-11T10:03:54.204Z,99617.45
2019-02-11T10:04:55.320Z,99621.97
2019-02-11T10:05:56.449Z,99621.16
2019-02-11T10:06:57.560Z,99616.48
2019-02-11T10:07:58.688Z,99617.51
2019-02-11T10:09:00.008Z,99615.64
2019-02-11T10:10:01.221Z,99616.66
2019-02-11T10:11:02.327Z,99611.96
2019-02-11T10:12:03.542Z,99615.98
2019-02-11T10:13:04.666Z,99625.05
2019-02-11T10:14:05.885Z,99616.69
2019-02-11T10:15:11.621Z,99620.70
2019-02-11T10:16:12.895Z,99623.39
2019-02-11T10:17:14.249Z,99620.39
2019-02-11T10:18:15.455Z,99620.87
2019-02-11T10:19:16.572Z,99623.56
2019-02-11T10:20:17.691Z,99623.24
2019-02-11T10:21:18.802Z,99625.43
2019-02-11T10:22:19.914Z,99620.55
2019-02-11T10:23:21.045Z,99622.22
2019-02-11T10:24:22.173Z,99620.87
2019-02-11T10:25:27.909Z,99626.77
2019-02-11T10:26:29.024Z,99617.88
2019-02-11T10:27:30.137Z,99623.56
2019-02-11T10:28:31.291Z,99620.87
2019-02-11T10:29:32.404Z,99624.91
2019-02-11T10:30:33.614Z,99623.56
2019-02-11T10:31:34.724Z,99625.23
2019-02-11T10:32:37.078Z,99623.39
2019-02-11T10:33:38.466Z,99627.09
2019-02-11T10:34:39.582Z,99623.39
2019-02-11T10:35:42.323Z,99626.89
2019-02-11T10:36:43.712Z,99628.23
2019-02-11T10:37:44.826Z,99624.20
2019-02-11T10:38:45.955Z,99633.59
2019-02-11T10:39:47.169Z,99630.09
2019-02-11T10:40:48.387Z,99634.13
2019-02-11T10:41:49.605Z,99637.63
2019-02-11T10:42:50.721Z,99638.97
2019-02-11T10:43:51.851Z,99642.98
2019-02-11T10:44:52.965Z,99642.98
2019-02-11T10:45:54.188Z,99641.16
2019-02-11T10:46:55.400Z,99635.79
2019-02-11T10:47:56.508Z,99643.31
2019-02-11T10:48:57.637Z,99639.28
2019-02-11T10:49:58.756Z,99645.50
2019-02-11T10:51:00.058Z,99640.45
2019-02-11T10:52:01.179Z,99637.95
2019-02-11T10:53:02.292Z,99642.67
2019-02-11T10:54:03.447Z,99643.66
2019-02-11T10:55:08.164Z,99643.49
2019-02-11T10:56:09.380Z,99641.80
2019-02-11T10:57:12.292Z,99643.81
2019-02-11T10:58:13.524Z,99641.13
2019-02-11T10:59:14.669Z,99647.84
2019-02-11T11:00:18.887Z,99643.64
2019-02-11T11:01:20.137Z,99644.14
2019-02-11T11:02:21.374Z,99644.78
2019-02-11T11:03:22.471Z,99651.81
2019-02-11T11:04:23.603Z,99651.81
2019-02-11T11:05:24.717Z,99651.81
2019-02-11T11:06:25.833Z,99650.47
2019-02-11T11:07:26.949Z,99646.44
2019-02-11T11:08:28.175Z,99651.96
2019-02-11T11:09:29.315Z,99655.14
2019-02-11T11:10:36.075Z,99651.64
2019-02-11T11:11:37.191Z,99651.44
2019-02-11T11:12:38.315Z,99651.44
2019-02-11T11:13:39.429Z,99647.73
2019-02-11T11:14:40.685Z,99645.89
2019-02-11T11:15:41.808Z,99647.23
2019-02-11T11:16:42.926Z,99642.19
2019-02-11T11:17:44.138Z,99647.56
2019-02-11T11:18:45.249Z,99651.58
2019-02-11T11:19:46.600Z,99645.89
2019-02-11T11:20:47.749Z,99652.08
2019-02-11T11:21:48.860Z,99653.25
2019-02-11T11:22:50.012Z,99652.92
2019-02-11T11:23:51.240Z,99652.41
2019-02-11T11:24:52.498Z,99656.95
2019-02-11T11:25:54.011Z,99656.10
2019-02-11T11:26:55.850Z,99652.92
2019-02-11T11:27:56.963Z,99654.27
2019-02-11T11:28:58.185Z,99652.08
2019-02-11T11:29:59.936Z,99654.77
2019-02-11T11:31:01.255Z,99650.41
2019-02-11T11:32:02.473Z,99657.65
2019-02-11T11:33:04.081Z,99651.27
2019-02-11T11:34:05.190Z,99657.65
2019-02-11T11:35:08.220Z,99650.62
2019-02-11T11:36:09.328Z,99647.94
2019-02-11T11:37:10.449Z,99649.28
2019-02-11T11:38:11.568Z,99657.00
2019-02-11T11:39:14.584Z,99654.32
2019-02-11T11:40:20.149Z,99652.45
2019-02-11T11:41:21.264Z,99651.64
2019-02-11T11:42:22.378Z,99655.66
2019-02-11T11:43:23.604Z,99648.95
2019-02-11T11:44:24.820Z,99654.64
2019-02-11T11:45:27.844Z,99659.16
2019-02-11T11:46:29.086Z,99652.98
2019-02-11T11:47:30.307Z,99657.82
2019-02-11T11:48:31.526Z,99660.02
2019-02-11T11:49:32.643Z,99660.02
2019-02-11T11:50:33.872Z,99655.46
2019-02-11T11:51:34.988Z,99661.67
2019-02-11T11:52:36.100Z,99658.47
2019-02-11T11:53:37.215Z,99664.16
2019-02-11T11:54:38.333Z,99671.19
2019-02-11T11:55:39.493Z,99667.16
2019-02-11T11:56:40.603Z,99664.30
2019-02-11T11:57:41.820Z,99670.81
2019-02-11T11:58:42.945Z,99668.97
2019-02-11T11:59:44.109Z,99672.47
2019-02-11T12:00:45.242Z,99671.98